Flight Track Log - Related Links

Times and Time Zones

All times are in EDT time to prevent confusion due to time zone crossing. See the N680AN flight status page for this flight to view local times or setup timezone preferences in your user account.

Time Position Orientation Groundspeed Altitude Reporting Facility
EDT Latitude Longitude Course Direction KTS MPH feet Rate Location/Type
Sun 12:11:11 PM 47.4325 -122.3086 164° South 156 180 1,400  Level Seattle Center
Sun 12:11:28 PM 47.4258 -122.3081 177° South 159 183 1,800 1,792 Climbing Seattle Center
Sun 12:12:28 PM 47.3714 -122.3100 181° South 205 236 3,700 2,281 Climbing Seattle Center
Sun 12:13:00 PM 47.2721 -121.8255 159° South  Level Estimated
Sun 12:13:29 PM 47.3022 -122.3103 180° South 247 284 6,400  Level Seattle Center
Sun 12:14:00 PM 47.2123 -121.6641 161° South  Level Estimated
Sun 12:14:30 PM 47.2264 -122.3028 176° South 276 318 8,900  Level Seattle Center
Sun 12:15:00 PM 47.1524 -121.5031 159° South  Level Estimated
Sun 12:15:31 PM 47.1497 -122.2625 160° South 298 343 11,100  Level Seattle Center
Sun 12:16:00 PM 47.0922 -121.3424 164° South  Level Estimated
Sun 12:16:31 PM 47.0400 -122.2075 161° South 359 413 12,900  Level Seattle Center
Sun 12:17:32 PM 46.9397 -122.1547 160° South 385 443 15,100 2,016 Climbing Seattle Center
Sun 12:18:33 PM 46.8378 -122.1011 160° South 395 455 17,000 1,686 Climbing Seattle Center
Sun 12:19:33 PM 46.7294 -122.0419 159° South 418 481 18,500 1,587 Climbing Seattle Center
Sun 12:20:34 PM 46.6547 -121.9019 128° Southeast 443 510 20,200 1,672 Climbing Seattle Center
Sun 12:21:35 PM 46.5903 -121.7422 120° Southeast 459 528 21,900 1,623 Climbing Seattle Center
Sun 12:22:36 PM 46.5258 -121.5858 121° Southeast 466 536 23,500 1,686 Climbing Seattle Center
Sun 12:23:36 PM 46.4583 -121.4214 121° Southeast 475 547 25,300 1,983 Climbing Seattle Center
Sun 12:24:37 PM 46.3744 -121.2200 121° Southeast 485 558 27,500 1,770 Climbing Seattle Center
Sun 12:25:38 PM 46.3011 -121.0469 121° Southeast 500 575 28,900 1,289 Climbing Seattle Center
Sun 12:26:38 PM 46.2236 -120.8689 122° Southeast 519 597 30,100 1,488 Climbing Seattle Center
Sun 12:27:39 PM 46.1461 -120.6881 122° Southeast 529 609 31,900 1,820 Climbing Seattle Center
Sun 12:28:40 PM 46.0694 -120.5100 122° Southeast 525 604 33,800 1,820 Climbing Seattle Center
Sun 12:29:41 PM 45.9919 -120.3347 122° Southeast 520 598 35,600 1,537 Climbing Seattle Center
Sun 12:30:41 PM 45.9172 -120.1619 122° Southeast 512 589 36,900 694 Climbing Seattle Center
Sun 12:31:42 PM 45.8425 -119.9900 122° Southeast 509 586 37,000 49 Climbing Seattle Center
Sun 12:32:43 PM 45.7681 -119.8211 122° Southeast 504 580 37,000  Level Seattle Center
Sun 12:33:43 PM 45.6936 -119.6528 122° Southeast 501 577 37,000  Level Seattle Center
Sun 12:34:44 PM 45.6178 -119.4881 123° Southeast 495 570 37,000  Level Seattle Center
Sun 12:35:45 PM 45.5439 -119.3253 123° Southeast 489 563 37,000  Level Seattle Center
Sun 12:36:45 PM 45.4697 -119.1625 123° Southeast 489 563 37,000  Level Seattle Center
Sun 12:37:46 PM 45.3950 -118.9986 123° Southeast 490 564 37,000  Level Seattle Center
Sun 12:38:47 PM 45.3197 -118.8328 123° Southeast 496 571 37,000  Level Seattle Center
Sun 12:39:48 PM 45.2425 -118.6686 124° Southeast 500 575 37,000  Level Seattle Center
Sun 12:40:48 PM 45.1667 -118.5031 123° Southeast 500 575 37,000  Level Seattle Center
Sun 12:41:49 PM 45.0892 -118.3408 124° Southeast 499 574 37,000  Level Seattle Center
Sun 12:42:04 PM 45.0728 -118.3064 124° Southeast 499 574 37,000  Level Salt Lake Center
Sun 12:43:06 PM 44.9808 -118.1078 123° Southeast 504 580 37,000  Level Salt Lake Center
Sun 12:43:51 PM 44.9261 -117.9947 124° Southeast 508 585 37,000  Level Seattle Center
Sun 12:44:51 PM 44.8533 -117.8383 123° Southeast 502 578 37,000  Level Seattle Center
Sun 12:45:09 PM 44.8297 -117.7853 122° Southeast 502 578 37,000  Level Salt Lake Center
Sun 12:46:10 PM 44.7614 -117.5883 116° Southeast 502 578 37,000  Level Salt Lake Center
Sun 12:47:12 PM 44.7025 -117.4194 116° Southeast 504 580 37,000  Level Salt Lake Center
Sun 12:47:54 PM 44.6614 -117.3058 117° Southeast 507 583 37,000  Level Seattle Center
Sun 12:48:54 PM 44.5917 -117.1092 116° Southeast 506 582 37,000  Level Seattle Center
Sun 12:49:15 PM 44.5717 -117.0528 116° Southeast 508 585 37,000  Level Salt Lake Center
Sun 12:50:17 PM 44.5114 -116.8839 117° Southeast 508 585 37,000  Level Salt Lake Center
Sun 12:51:18 PM 44.4400 -116.6856 117° Southeast 511 588 37,000  Level Salt Lake Center
Sun 12:52:20 PM 44.3786 -116.5175 117° Southeast 511 588 37,000  Level Salt Lake Center
Sun 12:53:21 PM 44.3069 -116.3222 117° Southeast 513 590 37,000  Level Salt Lake Center
Sun 12:54:23 PM 44.2461 -116.1550 117° Southeast 513 590 37,000  Level Salt Lake Center
Sun 12:55:24 PM 44.1747 -115.9603 117° Southeast 512 589 37,000  Level Salt Lake Center
Sun 12:56:26 PM 44.1119 -115.7925 117° Southeast 512 589 37,000  Level Salt Lake Center
Sun 12:57:27 PM 44.0378 -115.5933 117° Southeast 518 596 37,000  Level Salt Lake Center
Sun 12:58:29 PM 43.9733 -115.4231 118° Southeast 520 598 37,000  Level Salt Lake Center
Sun 12:59:30 PM 43.9092 -115.2539 118° Southeast 520 598 37,000  Level Salt Lake Center
Sun 01:00:32 PM 43.8347 -115.0556 117° Southeast 520 598 37,000  Level Salt Lake Center
Sun 01:01:33 PM 43.7700 -114.8878 118° Southeast 517 595 37,000  Level Salt Lake Center
Sun 01:02:35 PM 43.6939 -114.6906 118° Southeast 520 598 37,000  Level Salt Lake Center
Sun 01:03:36 PM 43.6294 -114.5239 118° Southeast 516 594 37,000  Level Salt Lake Center
Sun 01:04:37 PM 43.5525 -114.3283 118° Southeast 519 597 37,000  Level Salt Lake Center
Sun 01:05:39 PM 43.4875 -114.1603 118° Southeast 519 597 37,000  Level Salt Lake Center
Sun 01:06:40 PM 43.4214 -113.9969 119° Southeast 512 589 37,000  Level Salt Lake Center
Sun 01:07:42 PM 43.3442 -113.8036 119° Southeast 517 595 37,000  Level Salt Lake Center
Sun 01:08:43 PM 43.2778 -113.6414 119° Southeast 513 590 37,000  Level Salt Lake Center
Sun 01:09:45 PM 43.2028 -113.4522 118° Southeast 509 586 37,000  Level Salt Lake Center
Sun 01:10:46 PM 43.1367 -113.2908 119° Southeast 508 585 37,000  Level Salt Lake Center
Sun 01:11:47 PM 43.0717 -113.1300 119° Southeast 507 583 37,000  Level Salt Lake Center
Sun 01:12:49 PM 42.9947 -112.9447 120° Southeast 504 580 37,000  Level Salt Lake Center
Sun 01:13:50 PM 42.9275 -112.7844 120° Southeast 506 582 37,000  Level Salt Lake Center
Sun 01:14:51 PM 42.8472 -112.6011 121° Southeast 505 581 37,000  Level Salt Lake Center
Sun 01:15:53 PM 42.7683 -112.4564 127° Southeast 501 577 37,000  Level Salt Lake Center
Sun 01:16:54 PM 42.6822 -112.3025 127° Southeast 501 577 37,000  Level Salt Lake Center
Sun 01:17:56 PM 42.5997 -112.1508 126° Southeast 499 574 37,000  Level Salt Lake Center
Sun 01:18:57 PM 42.5175 -111.9994 126° Southeast 499 574 37,000  Level Salt Lake Center
Sun 01:19:58 PM 42.4339 -111.8522 128° Southeast 494 568 37,000  Level Salt Lake Center
Sun 01:21:00 PM 42.3508 -111.7036 127° Southeast 494 568 37,000  Level Salt Lake Center
Sun 01:22:01 PM 42.2661 -111.5539 127° Southeast 499 574 37,000  Level Salt Lake Center
Sun 01:23:03 PM 42.1644 -111.3758 128° Southeast 499 574 37,000  Level Salt Lake Center
Sun 01:24:04 PM 42.0794 -111.2261 127° Southeast 503 579 37,000  Level Salt Lake Center
Sun 01:25:05 PM 41.9947 -111.0758 127° Southeast 504 580 37,000  Level Salt Lake Center
Sun 01:26:07 PM 41.9133 -110.9333 127° Southeast 502 578 37,000  Level Salt Lake Center
Sun 01:27:08 PM 41.8192 -110.7681 127° Southeast 499 574 37,000  Level Salt Lake Center
Sun 01:28:10 PM 41.7375 -110.6275 128° Southeast 500 575 37,000  Level Salt Lake Center
Sun 01:29:11 PM 41.6578 -110.4883 127° Southeast 495 570 37,000  Level Salt Lake Center
Sun 01:30:13 PM 41.5631 -110.3289 128° Southeast 493 567 37,000  Level Salt Lake Center
Sun 01:31:14 PM 41.4836 -110.1914 128° Southeast 491 565 37,000  Level Salt Lake Center
Sun 01:32:16 PM 41.3911 -110.0347 128° Southeast 485 558 37,000  Level Salt Lake Center
Sun 01:33:17 PM 41.3119 -109.9014 128° Southeast 484 557 37,000  Level Salt Lake Center
Sun 01:34:19 PM 41.2197 -109.7464 128° Southeast 481 554 37,000  Level Salt Lake Center
Sun 01:35:20 PM 41.1406 -109.6131 128° Southeast 482 555 37,000  Level Salt Lake Center
Sun 01:36:22 PM 41.0486 -109.4589 128° Southeast 482 555 37,000  Level Salt Lake Center
Sun 01:37:23 PM 40.9686 -109.3258 129° Southeast 485 558 37,000  Level Salt Lake Center
Sun 01:38:25 PM 40.8886 -109.1931 129° Southeast 485 558 37,000  Level Salt Lake Center
Sun 01:39:26 PM 40.7953 -109.0417 129° Southeast 480 552 37,000  Level Salt Lake Center
Sun 01:40:28 PM 40.7153 -108.9108 129° Southeast 479 551 37,000  Level Salt Lake Center
Sun 01:40:48 PM 40.6900 -108.8656 126° Southeast 478 550 37,000  Level Denver Center
Sun 01:41:50 PM 40.5967 -108.7114 129° Southeast 479 551 37,000  Level Denver Center
Sun 01:42:52 PM 40.5156 -108.5811 129° Southeast 479 551 37,000  Level Denver Center
Sun 01:43:54 PM 40.4211 -108.4297 129° Southeast 478 550 37,000  Level Denver Center
Sun 01:44:56 PM 40.3400 -108.3014 130° Southeast 475 547 37,000  Level Denver Center
Sun 01:45:58 PM 40.2456 -108.1500 129° Southeast 476 548 37,000  Level Denver Center
Sun 01:47:00 PM 40.1639 -108.0222 130° Southeast 476 548 37,000  Level Denver Center
Sun 01:48:02 PM 40.0708 -107.8722 129° Southeast 474 545 37,000  Level Denver Center
Sun 01:49:04 PM 39.9897 -107.7453 130° Southeast 474 545 37,000  Level Denver Center
Sun 01:50:06 PM 39.9094 -107.6186 130° Southeast 472 543 37,000  Level Denver Center
Sun 01:51:08 PM 39.8139 -107.4719 130° Southeast 473 544 37,000 242 Level Denver Center
Sun 01:52:10 PM 39.7322 -107.3447 130° Southeast 478 550 37,500 919 Climbing Denver Center
Sun 01:53:12 PM 39.6364 -107.1981 130° Southeast 477 549 38,900 726 Climbing Denver Center
Sun 01:54:14 PM 39.5550 -107.0722 130° Southeast 475 547 39,000 48 Climbing Denver Center
Sun 01:55:17 PM 39.4592 -106.9278 131° Southeast 472 543 39,000  Level Denver Center
Sun 01:56:19 PM 39.3803 -106.8033 129° Southeast 470 541 39,000  Level Denver Center
Sun 01:57:21 PM 39.2928 -106.6536 127° Southeast 469 540 39,000  Level Denver Center
Sun 01:58:23 PM 39.2139 -106.5242 128° Southeast 476 548 39,000  Level Denver Center
Sun 01:59:25 PM 39.1208 -106.3736 129° Southeast 479 551 39,000  Level Denver Center
Sun 02:00:27 PM 39.0392 -106.2431 129° Southeast 485 558 39,000  Level Denver Center
Sun 02:01:29 PM 38.9569 -106.1081 128° Southeast 480 552 39,000  Level Denver Center
Sun 02:02:31 PM 38.8744 -105.9761 129° Southeast 472 543 39,000  Level Denver Center
Sun 02:03:33 PM 38.7922 -105.8422 128° Southeast 471 542 39,000  Level Denver Center
Sun 02:04:35 PM 38.6981 -105.6914 129° Southeast 465 535 39,000  Level Denver Center
Sun 02:05:37 PM 38.6169 -105.5603 128° Southeast 467 537 39,000  Level Denver Center
Sun 02:06:39 PM 38.5353 -105.4297 129° Southeast 467 537 39,000  Level Denver Center
Sun 02:07:41 PM 38.4550 -105.3003 128° Southeast 465 535 39,000  Level Denver Center
Sun 02:08:43 PM 38.3742 -105.1722 129° Southeast 463 533 39,000  Level Denver Center
Sun 02:09:45 PM 38.2917 -105.0442 129° Southeast 461 531 39,000  Level Denver Center
Sun 02:10:47 PM 38.1972 -104.8961 129° Southeast 461 531 39,000  Level Denver Center
Sun 02:11:49 PM 38.1156 -104.7686 129° Southeast 461 531 39,000  Level Denver Center
Sun 02:12:51 PM 38.0322 -104.6422 130° Southeast 456 525 39,000  Level Denver Center
Sun 02:13:53 PM 37.9542 -104.5239 130° Southeast 458 527 39,000  Level Denver Center
Sun 02:14:55 PM 37.8633 -104.3847 130° Southeast 458 527 39,000  Level Denver Center
Sun 02:15:57 PM 37.7856 -104.2656 130° Southeast 458 527 39,000  Level Denver Center
Sun 02:16:59 PM 37.6936 -104.1267 130° Southeast 459 528 39,000  Level Denver Center
Sun 02:18:01 PM 37.6147 -104.0056 129° Southeast 458 527 39,000  Level Denver Center
Sun 02:19:03 PM 37.5328 -103.8817 130° Southeast 457 526 39,000  Level Denver Center
Sun 02:20:05 PM 37.4525 -103.7617 130° Southeast 462 532 39,000  Level Denver Center
Sun 02:21:46 PM 37.3108 -103.5400 129° Southeast 463 533 39,000  Level Albuquerque Center
Sun 02:22:48 PM 37.2369 -103.4150 127° Southeast 464 534 39,000  Level Albuquerque Center
Sun 02:23:50 PM 37.1483 -103.2708 128° Southeast 466 536 39,000  Level Albuquerque Center
Sun 02:24:52 PM 37.0714 -103.1494 128° Southeast 465 535 39,000  Level Albuquerque Center
Sun 02:25:54 PM 36.9828 -103.0053 128° Southeast 467 537 39,000  Level Albuquerque Center
Sun 02:26:56 PM 36.9067 -102.8819 128° Southeast 466 536 39,000  Level Albuquerque Center
Sun 02:27:58 PM 36.8172 -102.7392 128° Southeast 468 539 39,000  Level Albuquerque Center
Sun 02:29:00 PM 36.7419 -102.6167 127° Southeast 465 535 39,000  Level Albuquerque Center
Sun 02:30:02 PM 36.6514 -102.4722 128° Southeast 467 537 39,000  Level Albuquerque Center
Sun 02:31:04 PM 36.5717 -102.3467 128° Southeast 463 533 39,000  Level Albuquerque Center
Sun 02:32:06 PM 36.4942 -102.2228 128° Southeast 458 527 39,000  Level Albuquerque Center
Sun 02:33:08 PM 36.4169 -102.0964 127° Southeast 458 527 39,000  Level Albuquerque Center
Sun 02:34:10 PM 36.3400 -101.9750 128° Southeast 451 519 39,000  Level Albuquerque Center
Sun 02:35:12 PM 36.2617 -101.8525 128° Southeast 452 520 39,000  Level Albuquerque Center
Sun 02:36:14 PM 36.1686 -101.7053 128° Southeast 453 521 39,000  Level Albuquerque Center
Sun 02:37:16 PM 36.0892 -101.5844 129° Southeast 453 521 39,000  Level Albuquerque Center
Sun 02:38:18 PM 36.0092 -101.4586 128° Southeast 457 526 39,000  Level Albuquerque Center
Sun 02:39:20 PM 35.9292 -101.3347 129° Southeast 460 529 39,000  Level Albuquerque Center
Sun 02:40:22 PM 35.8481 -101.2108 129° Southeast 461 531 39,000  Level Albuquerque Center
Sun 02:41:24 PM 35.7681 -101.0869 128° Southeast 461 531 39,000  Level Albuquerque Center
Sun 02:42:26 PM 35.6869 -100.9633 129° Southeast 461 531 39,000  Level Albuquerque Center
Sun 02:43:28 PM 35.5897 -100.8142 129° Southeast 462 532 39,000  Level Albuquerque Center
Sun 02:44:30 PM 35.5086 -100.6903 129° Southeast 463 533 39,000  Level Albuquerque Center
Sun 02:45:32 PM 35.4264 -100.5658 129° Southeast 466 536 39,000  Level Albuquerque Center
Sun 02:46:34 PM 35.3458 -100.4433 129° Southeast 466 536 39,000  Level Albuquerque Center
Sun 02:47:36 PM 35.2633 -100.3197 129° Southeast 468 539 39,000  Level Albuquerque Center
Sun 02:48:38 PM 35.1800 -100.1958 129° Southeast 470 541 39,000  Level Albuquerque Center
Sun 02:49:40 PM 35.0978 -100.0719 129° Southeast 471 542 39,000  Level Albuquerque Center
Sun 02:50:42 PM 34.9986 -99.9250 129° Southeast 470 541 39,000 -484 Level Albuquerque Center
Sun 02:51:44 PM 34.9164 -99.8022 129° Southeast 468 539 38,000 -950 Descending Albuquerque Center
Sun 02:52:42 PM 34.8308 -99.6800 130° Southeast 463 533 37,100 -1,008 Descending Fort Worth Center
Sun 02:53:43 PM 34.7494 -99.5592 129° Southeast 463 533 36,000 -1,200 Descending Fort Worth Center
Sun 02:54:42 PM 34.6700 -99.4408 129° Southeast 463 533 34,700 -1,311 Descending Fort Worth Center
Sun 02:55:42 PM 34.5906 -99.3231 129° Southeast 463 533 33,400 -1,388 Descending Fort Worth Center
Sun 02:56:43 PM 34.5069 -99.2028 130° Southeast 463 533 31,900 -1,400 Descending Fort Worth Center
Sun 02:57:42 PM 34.4333 -99.0981 130° Southeast 463 533 30,600 -1,412 Descending Fort Worth Center
Sun 02:58:42 PM 34.3492 -98.9781 130° Southeast 463 533 29,100 -1,488 Descending Fort Worth Center
Sun 02:59:43 PM 34.2692 -98.8611 130° Southeast 463 533 27,600 -1,450 Descending Fort Worth Center
Sun 03:00:42 PM 34.1872 -98.7417 130° Southeast 463 533 26,200 -1,513 Descending Fort Worth Center
Sun 03:01:42 PM 34.1069 -98.6275 130° Southeast 463 533 24,600 -1,100 Descending Fort Worth Center
Sun 03:02:42 PM 34.0267 -98.5111 130° Southeast 432 497 24,000 -700 Descending Fort Worth Center
Sun 03:03:42 PM 33.9544 -98.4050 129° Southeast 410 472 23,200 -1,425 Descending Fort Worth Center
Sun 03:05:43 PM 33.8139 -98.2058 130° Southeast 391 450 19,700 -1,733 Descending Fort Worth Center
Sun 03:06:42 PM 33.7436 -98.1153 133° Southeast 381 438 18,000 -1,714 Descending Fort Worth Center
Sun 03:07:42 PM 33.6753 -98.0225 131° Southeast 375 432 16,300 -1,686 Descending Fort Worth Center
Sun 03:08:43 PM 33.6025 -97.9247 132° Southeast 375 432 14,600 -1,650 Descending Fort Worth Center
Sun 03:09:42 PM 33.5278 -97.8294 133° Southeast 375 432 13,000 -1,613 Descending Fort Worth Center
Sun 03:10:42 PM 33.4592 -97.7397 132° Southeast 377 434 11,400 -992 Descending Fort Worth Center
Sun 03:11:43 PM 33.3947 -97.6597 134° Southeast 342 394 11,000 -750 Descending Fort Worth Center
Sun 03:12:42 PM 33.3364 -97.5875 134° Southeast 311 358 9,900 -1,210 Descending Fort Worth Center
Sun 03:13:42 PM 33.2781 -97.5203 136° Southeast 300 345 8,600 -1,339 Descending Fort Worth Center
Sun 03:14:43 PM 33.2258 -97.4483 131° Southeast 294 338 7,200 -1,300 Descending Fort Worth Center
Sun 03:15:42 PM 33.1694 -97.3811 135° Southeast 289 333 6,000 -1,311 Descending Fort Worth Center
Sun 03:16:42 PM 33.1192 -97.3167 133° Southeast 279 321 4,600 -1,240 Descending Fort Worth Center
Sun 03:17:43 PM 33.0692 -97.2547 134° Southeast 273 314 3,500 -1,082 Descending Fort Worth Center

Login

Don't have an account? Register now (free) for customized features, flight alerts, and more!